Terminal Aerodrome Forecast
Issued by NWS

Home | Current Version | Previous Version | Text Only | Print | Product List | Glossary Off
Versions: 1 2 3 4 5 6 7 8 9 10 11 12 13 14 15 16 17 18 19 20

000
FTUS43 KDLH 260800 AAA
TAFHYR
TAF AMD
KHYR 260857Z 2609/2706 00000KT P6SM OVC040
      TEMPO 2612/2616 5SM -SN OVC025
     FM261600 35005KT 3SM -SN SCT015 OVC020
     FM262000 34008KT 1 1/2SM -SN BR OVC015
     FM270200 34008KT 4SM -SN OVC020=

USA.gov is the U.S. government's official web portal to all federal, state and local government web resources and services.